Řízení letového provozu České republiky
Letiste: LKKB Aktualizace: 17.02.2019 02:01:06  UTC
 METAR LKKB 17.02. 02:00 ...
METAR LKKB 170200Z 22003KT 7000 NSC M00/M03 Q1027 RMK WHT=
 TAF LKKB 16.02. 23:00 ...
TAF LKKB 162300Z 1700/1800 VRB02KT 6000 NSC      TEMPO 1702/1706 0800 FZFG VV001      BECMG 1705/1707 CAVOK      BECMG 1721/1723 6000 NSC=